map of BLD home
Great Circle Mapper logo
BLD - Airport
Location
City:  Boulder City, Nevada, United States
Name:Boulder City Municipal Airport
ICAO / IATA:KBVU / BLD
FAA:BVU

Details
Type:Airport (Airfield)
Use:Public/Civil
Latitude:3556'50"N (35.947333)
Longitude:11451'37"W (-114.860388)
Datum:WGS 1984
Elevation:2203 ft (671 m)
Runways:3
Longest:4803 × 75 ft (1464 × 23 m), paved

Time
Time Zone:UTC-8 (DST-7)
Local Time:

Weather
METAR:KBVU 222215Z AUTO 10003KT 10SM CLR 28/M01 A3000 RMK AO2

Related Locations
Nearby:
Farthest:RRG: 11310 mi / 18202 km
Plaine Corail, Rodrigues Island, MU

Find:

   beyond  
but within

Other Information
Maps:
NOTAMs:
Links:
Sources:

  
flag of United States
flag of Nevada
  

Sectional Chart

Flight Planning
at skyvector.com

Satellite Image

Google Maps Satellite View

 

Copyright © 2004-2014 Karl L. Swartz. All rights reserved.
The Great Circle Mapper name and logo are trademarks of the Great Circle Mapper.
All other trademarks mentioned herein belong to their respective owners.
Please see credits for attibutions and further copyright information.

  Follow gcmap on Facebook Follow gcmap on Twitter

hCard Microformat

Geo Microformat